createdAt,value
2016-01-20T00:00:16.258Z,83
2016-01-20T00:01:16.292Z,83
2016-01-20T00:02:16.326Z,83
2016-01-20T00:03:16.344Z,83
2016-01-20T00:04:16.378Z,83
2016-01-20T00:05:16.412Z,83
2016-01-20T00:06:16.477Z,83
2016-01-20T00:07:18.246Z,83
2016-01-20T00:08:18.280Z,83
2016-01-20T00:09:18.298Z,83
2016-01-20T00:10:18.598Z,83
2016-01-20T00:11:18.930Z,83
2016-01-20T00:12:19.151Z,83
2016-01-20T00:13:19.467Z,84
2016-01-20T00:14:19.751Z,83
2016-01-20T00:15:20.003Z,83
2016-01-20T00:16:20.350Z,83
2016-01-20T00:17:22.134Z,84
2016-01-20T00:18:22.434Z,83
2016-01-20T00:19:22.671Z,83
2016-01-20T00:20:22.987Z,84
2016-01-20T00:21:23.254Z,83
2016-01-20T00:22:23.522Z,83
2016-01-20T00:23:23.838Z,84
2016-01-20T00:24:24.105Z,84
2016-01-20T00:25:24.390Z,84
2016-01-20T00:26:24.737Z,84
2016-01-20T00:27:26.505Z,84
2016-01-20T00:28:26.477Z,84
2016-01-20T00:29:27.073Z,84
2016-01-20T00:30:27.358Z,84
2016-01-20T00:31:27.656Z,84
2016-01-20T00:32:27.924Z,84
2016-01-20T00:33:28.224Z,84
2016-01-20T00:34:28.493Z,84
2016-01-20T00:35:29.011Z,84
2016-01-20T00:36:29.623Z,84
2016-01-20T00:37:31.376Z,84
2016-01-20T00:38:31.925Z,84
2016-01-20T00:39:32.459Z,84
2016-01-20T00:40:33.009Z,84
2016-01-20T00:41:33.543Z,84
2016-01-20T00:42:34.076Z,84
2016-01-20T00:43:34.610Z,84
2016-01-20T00:44:35.160Z,84
2016-01-20T00:45:35.960Z,84
2016-01-20T00:46:36.806Z,84
2016-01-20T00:47:38.668Z,84
2016-01-20T00:48:39.358Z,84
2016-01-20T00:49:40.158Z,84
2016-01-20T00:50:41.004Z,84
2016-01-20T00:51:41.772Z,84
2016-01-20T00:52:42.541Z,84
2016-01-20T00:53:43.403Z,84
2016-01-20T00:54:44.140Z,84
2016-01-20T00:55:44.940Z,84
2016-01-20T00:56:45.786Z,84
2016-01-20T00:57:47.555Z,84
2016-01-20T00:58:48.354Z,84
2016-01-20T00:59:49.154Z,84
2016-01-20T01:00:49.953Z,84
2016-01-20T01:01:50.737Z,84
2016-01-20T01:02:51.663Z,84
2016-01-20T01:03:52.337Z,84
2016-01-20T01:04:53.136Z,84
2016-01-20T01:05:53.936Z,84
2016-01-20T01:06:54.783Z,84
2016-01-20T01:07:56.551Z,84
2016-01-20T01:08:57.336Z,85
2016-01-20T01:09:58.400Z,85
2016-01-20T01:10:59.450Z,85
2016-01-20T01:12:00.765Z,85
2016-01-20T01:13:01.815Z,85
2016-01-20T01:14:03.115Z,85
2016-01-20T01:15:04.430Z,85
2016-01-20T01:16:05.745Z,85
2016-01-20T01:17:07.108Z,85
2016-01-20T01:18:08.860Z,85
2016-01-20T01:19:10.253Z,85
2016-01-20T01:20:11.522Z,85
2016-01-20T01:21:12.822Z,85
2016-01-20T01:22:14.105Z,85
2016-01-20T01:23:15.420Z,85
2016-01-20T01:24:16.720Z,85
2016-01-20T01:25:18.036Z,85
2016-01-20T01:26:19.350Z,85
2016-01-20T01:27:20.713Z,85
2016-01-20T01:28:22.028Z,85
2016-01-20T01:29:23.781Z,85
2016-01-20T01:30:25.081Z,85
2016-01-20T01:31:26.395Z,85
2016-01-20T01:32:27.976Z,85
2016-01-20T01:33:29.526Z,85
2016-01-20T01:34:31.091Z,85
2016-01-20T01:35:32.391Z,85
2016-01-20T01:36:33.535Z,85
2016-01-20T01:37:35.583Z,85
2016-01-20T01:38:37.367Z,85
2016-01-20T01:39:38.949Z,86
2016-01-20T01:40:40.748Z,86
2016-01-20T01:41:42.563Z,86
2016-01-20T01:42:44.378Z,86
2016-01-20T01:43:46.209Z,86
2016-01-20T01:44:48.024Z,86
2016-01-20T01:45:49.854Z,86
2016-01-20T01:46:51.654Z,86
2016-01-20T01:47:53.548Z,86
2016-01-20T01:48:55.301Z,86
2016-01-20T01:49:57.132Z,86
2016-01-20T01:50:58.947Z,86
2016-01-20T01:52:00.778Z,86
2016-01-20T01:53:02.592Z,86
2016-01-20T01:54:04.423Z,86
2016-01-20T01:55:06.238Z,86
2016-01-20T01:56:08.053Z,86
2016-01-20T01:57:09.869Z,86
2016-01-20T01:58:11.747Z,86
2016-01-20T01:59:13.515Z,86
2016-01-20T02:00:15.330Z,86
2016-01-20T02:01:17.567Z,86
2016-01-20T02:02:18.976Z,86
2016-01-20T02:03:21.041Z,86
2016-01-20T02:04:23.122Z,86
2016-01-20T02:05:25.268Z,86
2016-01-20T02:06:27.302Z,86
2016-01-20T02:07:29.352Z,86
2016-01-20T02:08:31.495Z,86
2016-01-20T02:09:33.248Z,86
2016-01-20T02:10:35.329Z,86
2016-01-20T02:11:37.441Z,86
2016-01-20T02:12:39.491Z,86
2016-01-20T02:13:41.837Z,86
2016-01-20T02:14:44.168Z,86
2016-01-20T02:15:46.498Z,86
2016-01-20T02:16:48.767Z,86
2016-01-20T02:17:51.206Z,86
2016-01-20T02:18:53.568Z,86
2016-01-20T02:19:55.321Z,86
2016-01-20T02:20:57.653Z,86
2016-01-20T02:21:59.984Z,86
2016-01-20T02:23:02.329Z,86
2016-01-20T02:24:04.660Z,86
2016-01-20T02:25:07.006Z,86
2016-01-20T02:26:09.337Z,86
2016-01-20T02:27:11.669Z,86
2016-01-20T02:28:14.000Z,86
2016-01-20T02:29:16.393Z,86
2016-01-20T02:30:18.177Z,86
2016-01-20T02:31:20.523Z,86
2016-01-20T02:32:22.838Z,86
2016-01-20T02:33:25.172Z,86
2016-01-20T02:34:27.534Z,86
2016-01-20T02:35:29.865Z,86
2016-01-20T02:36:32.180Z,86
2016-01-20T02:37:34.526Z,86
2016-01-20T02:38:36.857Z,86
2016-01-20T02:39:39.249Z,86
2016-01-20T02:40:41.018Z,86
2016-01-20T02:41:43.350Z,86
2016-01-20T02:42:45.696Z,86
2016-01-20T02:43:48.027Z,86
2016-01-20T02:44:50.357Z,86
2016-01-20T02:45:52.688Z,86
2016-01-20T02:46:54.598Z,86
2016-01-20T02:47:57.366Z,86
2016-01-20T02:48:59.696Z,86
2016-01-20T02:50:02.105Z,86
2016-01-20T02:51:03.842Z,86
2016-01-20T02:52:06.189Z,86
2016-01-20T02:53:08.519Z,86
2016-01-20T02:54:11.022Z,86
2016-01-20T02:55:13.197Z,86
2016-01-20T02:56:15.528Z,87
2016-01-20T02:57:14.015Z,86
2016-01-20T02:58:16.346Z,86
2016-01-20T02:59:18.692Z,86
2016-01-20T03:00:21.069Z,87
2016-01-20T03:01:22.838Z,87
2016-01-20T03:02:25.169Z,87
2016-01-20T03:03:23.656Z,87
2016-01-20T03:04:25.987Z,87
2016-01-20T03:05:24.833Z,87
2016-01-20T03:06:22.961Z,87
2016-01-20T03:07:25.308Z,87
2016-01-20T03:08:23.810Z,87
2016-01-20T03:09:22.282Z,87
2016-01-20T03:10:20.816Z,87
2016-01-20T03:11:22.600Z,87
2016-01-20T03:12:21.336Z,87
2016-01-20T03:13:20.089Z,87
2016-01-20T03:14:18.811Z,87
2016-01-20T03:15:17.548Z,87
2016-01-20T03:16:16.066Z,87
2016-01-20T03:17:14.366Z,87
2016-01-20T03:18:13.524Z,87
2016-01-20T03:19:12.012Z,87
2016-01-20T03:20:10.890Z,87
2016-01-20T03:21:13.110Z,87
2016-01-20T03:22:10.880Z,87
2016-01-20T03:23:10.070Z,87
2016-01-20T03:24:08.807Z,87
2016-01-20T03:25:07.559Z,87
2016-01-20T03:26:06.296Z,87
2016-01-20T03:27:05.048Z,87
2016-01-20T03:28:03.787Z,87
2016-01-20T03:29:02.523Z,87
2016-01-20T03:30:01.323Z,87
2016-01-20T03:31:03.106Z,87
2016-01-20T03:32:01.828Z,87
2016-01-20T03:33:00.580Z,87
2016-01-20T03:33:59.333Z,87
2016-01-20T03:34:58.056Z,87
2016-01-20T03:35:56.839Z,87
2016-01-20T03:36:55.545Z,87
2016-01-20T03:37:54.282Z,87
2016-01-20T03:38:53.034Z,87
2016-01-20T03:39:51.834Z,87
2016-01-20T03:40:53.586Z,87
2016-01-20T03:41:52.339Z,87
2016-01-20T03:42:51.076Z,87
2016-01-20T03:43:49.813Z,87
2016-01-20T03:44:48.660Z,87
2016-01-20T03:45:47.302Z,87
2016-01-20T03:46:46.041Z,87
2016-01-20T03:47:44.794Z,87
2016-01-20T03:48:43.638Z,87
2016-01-20T03:49:42.327Z,87
2016-01-20T03:50:44.111Z,88
2016-01-20T03:51:43.083Z,87
2016-01-20T03:52:41.414Z,87
2016-01-20T03:53:40.589Z,87
2016-01-20T03:54:39.326Z,87
2016-01-20T03:55:38.095Z,88
2016-01-20T03:56:37.067Z,87
2016-01-20T03:57:35.804Z,87
2016-01-20T03:58:34.495Z,87
2016-01-20T03:59:33.356Z,87
2016-01-20T04:00:35.125Z,87
2016-01-20T04:01:33.955Z,87
2016-01-20T04:02:32.614Z,88
2016-01-20T04:03:31.601Z,87
2016-01-20T04:04:30.479Z,87
2016-01-20T04:05:29.076Z,87
2016-01-20T04:06:27.826Z,88
2016-01-20T04:07:26.828Z,88
2016-01-20T04:08:26.236Z,88
2016-01-20T04:09:24.896Z,88
2016-01-20T04:10:26.649Z,88
2016-01-20T04:11:25.636Z,88
2016-01-20T04:12:24.638Z,88
2016-01-20T04:13:23.641Z,88
2016-01-20T04:14:22.644Z,88
2016-01-20T04:15:21.662Z,88
2016-01-20T04:16:20.899Z,88
2016-01-20T04:17:19.885Z,88
2016-01-20T04:18:18.888Z,88
2016-01-20T04:19:17.938Z,88
2016-01-20T04:20:19.723Z,88
2016-01-20T04:21:18.726Z,88
2016-01-20T04:22:17.962Z,88
2016-01-20T04:23:17.231Z,88
2016-01-20T04:24:16.534Z,88
2016-01-20T04:25:15.740Z,88
2016-01-20T04:26:14.978Z,88
2016-01-20T04:27:14.246Z,88
2016-01-20T04:28:13.515Z,88
2016-01-20T04:29:12.798Z,88
2016-01-20T04:30:14.566Z,88
2016-01-20T04:31:13.866Z,88
2016-01-20T04:32:13.088Z,88
2016-01-20T04:33:12.340Z,88
2016-01-20T04:34:11.593Z,88
2016-01-20T04:35:10.846Z,88
2016-01-20T04:36:10.114Z,88
2016-01-20T04:37:09.383Z,88
2016-01-20T04:38:08.619Z,88
2016-01-20T04:39:08.185Z,88
2016-01-20T04:40:09.969Z,88
2016-01-20T04:41:09.205Z,88
2016-01-20T04:42:08.505Z,88
2016-01-20T04:43:07.976Z,88
2016-01-20T04:44:07.479Z,88
2016-01-20T04:45:06.998Z,88
2016-01-20T04:46:06.501Z,88
2016-01-20T04:47:06.019Z,88
2016-01-20T04:48:05.552Z,88
2016-01-20T04:49:04.837Z,88
2016-01-20T04:50:06.168Z,88
2016-01-20T04:51:06.232Z,88
2016-01-20T04:52:05.641Z,88
2016-01-20T04:53:05.145Z,88
2016-01-20T04:54:04.647Z,89
2016-01-20T04:55:04.415Z,89
2016-01-20T04:56:04.183Z,89
2016-01-20T04:57:03.967Z,88
2016-01-20T04:58:03.470Z,88
2016-01-20T04:59:03.035Z,88
2016-01-20T05:00:04.789Z,88
2016-01-20T05:01:04.306Z,88
2016-01-20T05:02:03.809Z,89
2016-01-20T05:03:03.592Z,89
2016-01-20T05:04:02.955Z,89
2016-01-20T05:05:03.114Z,89
2016-01-20T05:06:02.898Z,89
2016-01-20T05:07:02.229Z,89
2016-01-20T05:08:02.435Z,89
2016-01-20T05:09:02.249Z,89
2016-01-20T05:10:04.018Z,89
2016-01-20T05:11:03.786Z,89
2016-01-20T05:12:03.680Z,89
2016-01-20T05:13:03.308Z,89
2016-01-20T05:14:03.091Z,89
2016-01-20T05:15:02.860Z,89
2016-01-20T05:16:02.627Z,89
2016-01-20T05:17:02.396Z,89
2016-01-20T05:18:02.149Z,89
2016-01-20T05:19:01.979Z,89
2016-01-20T05:20:03.748Z,89
2016-01-20T05:21:03.516Z,89
2016-01-20T05:22:03.285Z,89
2016-01-20T05:23:03.053Z,89
2016-01-20T05:24:02.806Z,89
2016-01-20T05:25:02.573Z,89
2016-01-20T05:26:02.342Z,89
2016-01-20T05:27:02.126Z,89
2016-01-20T05:28:01.879Z,89
2016-01-20T05:29:01.976Z,89
2016-01-20T05:30:03.744Z,89
2016-01-20T05:31:03.497Z,89
2016-01-20T05:32:03.514Z,89
2016-01-20T05:33:03.548Z,89
2016-01-20T05:34:03.567Z,89
2016-01-20T05:35:03.867Z,89
2016-01-20T05:36:04.135Z,89
2016-01-20T05:37:04.153Z,89
2016-01-20T05:38:04.187Z,89
2016-01-20T05:39:04.268Z,89
2016-01-20T05:40:06.021Z,89
2016-01-20T05:41:06.054Z,89
2016-01-20T05:42:06.072Z,89
2016-01-20T05:43:06.107Z,89
2016-01-20T05:44:06.125Z,89
2016-01-20T05:45:06.128Z,89
2016-01-20T05:46:06.162Z,89
2016-01-20T05:47:06.195Z,89
2016-01-20T05:48:06.213Z,89
2016-01-20T05:49:06.295Z,89
2016-01-20T05:50:08.063Z,89
2016-01-20T05:51:08.082Z,89
2016-01-20T05:52:08.100Z,89
2016-01-20T05:53:08.118Z,89
2016-01-20T05:54:08.417Z,89
2016-01-20T05:55:08.687Z,89
2016-01-20T05:56:08.720Z,89
2016-01-20T05:57:08.738Z,89
2016-01-20T05:58:08.835Z,89
2016-01-20T05:59:08.853Z,89
2016-01-20T06:00:10.606Z,89
2016-01-20T06:01:10.623Z,89
2016-01-20T06:02:10.673Z,89
2016-01-20T06:03:10.676Z,89
2016-01-20T06:04:10.694Z,89
2016-01-20T06:05:10.728Z,89
2016-01-20T06:06:10.762Z,89
2016-01-20T06:07:10.765Z,89
2016-01-20T06:08:10.830Z,89
2016-01-20T06:09:10.880Z,89
2016-01-20T06:10:12.647Z,89
2016-01-20T06:11:12.666Z,89
2016-01-20T06:12:12.700Z,89
2016-01-20T06:13:12.469Z,89
2016-01-20T06:14:12.767Z,89
2016-01-20T06:15:12.244Z,89
2016-01-20T06:16:11.987Z,89
2016-01-20T06:17:11.808Z,89
2016-01-20T06:18:11.520Z,89
2016-01-20T06:19:11.327Z,89
2016-01-20T06:20:13.076Z,89
2016-01-20T06:21:12.857Z,89
2016-01-20T06:22:12.621Z,89
2016-01-20T06:23:12.370Z,89
2016-01-20T06:24:12.152Z,89
2016-01-20T06:25:11.904Z,89
2016-01-20T06:26:11.670Z,89
2016-01-20T06:27:11.453Z,89
2016-01-20T06:28:11.220Z,89
2016-01-20T06:29:11.034Z,89
2016-01-20T06:30:12.802Z,89
2016-01-20T06:31:12.570Z,89
2016-01-20T06:32:12.339Z,89
2016-01-20T06:33:12.122Z,89
2016-01-20T06:34:11.921Z,89
2016-01-20T06:35:11.641Z,89
2016-01-20T06:36:11.410Z,89
2016-01-20T06:37:11.178Z,89
2016-01-20T06:38:10.945Z,89
2016-01-20T06:39:10.776Z,89
2016-01-20T06:40:12.545Z,89
2016-01-20T06:41:12.297Z,89
2016-01-20T06:42:12.050Z,89
2016-01-20T06:43:11.897Z,89
2016-01-20T06:44:11.603Z,89
2016-01-20T06:45:11.371Z,89
2016-01-20T06:46:11.139Z,89
2016-01-20T06:47:10.907Z,89
2016-01-20T06:48:10.675Z,89
2016-01-20T06:49:10.491Z,89
2016-01-20T06:50:12.260Z,89
2016-01-20T06:51:12.028Z,89
2016-01-20T06:52:11.796Z,89
2016-01-20T06:53:11.563Z,89
2016-01-20T06:54:11.599Z,89
2016-01-20T06:55:11.616Z,89
2016-01-20T06:56:11.385Z,89
2016-01-20T06:57:11.403Z,89
2016-01-20T06:58:11.718Z,89
2016-01-20T06:59:11.518Z,89
2016-01-20T07:00:13.271Z,89
2016-01-20T07:01:13.304Z,89
2016-01-20T07:02:13.322Z,89
2016-01-20T07:03:13.295Z,89
2016-01-20T07:04:13.375Z,89
2016-01-20T07:05:13.143Z,89
2016-01-20T07:06:13.161Z,89
2016-01-20T07:07:13.195Z,89
2016-01-20T07:08:13.214Z,89
2016-01-20T07:09:13.294Z,89
2016-01-20T07:10:15.063Z,89
2016-01-20T07:11:15.112Z,89
2016-01-20T07:12:15.115Z,89
2016-01-20T07:13:15.071Z,89
2016-01-20T07:14:15.167Z,89
2016-01-20T07:15:15.451Z,89
2016-01-20T07:16:15.719Z,89
2016-01-20T07:17:16.003Z,89
2016-01-20T07:18:16.272Z,89
2016-01-20T07:19:16.618Z,89
2016-01-20T07:20:18.371Z,89
2016-01-20T07:21:18.405Z,89
2016-01-20T07:22:18.423Z,89
2016-01-20T07:23:18.441Z,89
2016-01-20T07:24:18.476Z,89
2016-01-20T07:25:18.104Z,89
2016-01-20T07:26:18.262Z,89
2016-01-20T07:27:18.046Z,89
2016-01-20T07:28:17.862Z,89
2016-01-20T07:29:17.629Z,89
2016-01-20T07:30:18.945Z,89
2016-01-20T07:31:19.151Z,89
2016-01-20T07:32:18.919Z,89
2016-01-20T07:33:18.687Z,89
2016-01-20T07:34:18.456Z,89
2016-01-20T07:35:18.426Z,89
2016-01-20T07:36:17.929Z,89
2016-01-20T07:37:17.776Z,89
2016-01-20T07:38:17.514Z,89
2016-01-20T07:39:17.344Z,89
2016-01-20T07:40:19.097Z,89
2016-01-20T07:41:18.881Z,89
2016-01-20T07:42:18.634Z,89
2016-01-20T07:43:18.417Z,89
2016-01-20T07:44:18.170Z,89
2016-01-20T07:45:17.985Z,89
2016-01-20T07:46:17.722Z,89
2016-01-20T07:47:17.475Z,89
2016-01-20T07:48:17.259Z,89
2016-01-20T07:49:17.074Z,89
2016-01-20T07:50:18.826Z,89
2016-01-20T07:51:18.611Z,89
2016-01-20T07:52:18.363Z,89
2016-01-20T07:53:18.132Z,89
2016-01-20T07:54:17.899Z,89
2016-01-20T07:55:17.668Z,89
2016-01-20T07:56:17.437Z,89
2016-01-20T07:57:17.205Z,89
2016-01-20T07:58:16.974Z,89
2016-01-20T07:59:16.804Z,89
2016-01-20T08:00:18.573Z,89
2016-01-20T08:01:18.341Z,89
2016-01-20T08:02:18.093Z,89
2016-01-20T08:03:17.877Z,89
2016-01-20T08:04:17.692Z,89
2016-01-20T08:05:17.398Z,89
2016-01-20T08:06:17.167Z,89
2016-01-20T08:07:16.935Z,88
2016-01-20T08:08:16.438Z,89
2016-01-20T08:09:16.268Z,88
2016-01-20T08:10:18.037Z,88
2016-01-20T08:11:17.540Z,88
2016-01-20T08:12:17.058Z,88
2016-01-20T08:13:16.561Z,88
2016-01-20T08:14:16.079Z,88
2016-01-20T08:15:15.332Z,88
2016-01-20T08:16:14.570Z,88
2016-01-20T08:17:13.837Z,88
2016-01-20T08:18:13.090Z,88
2016-01-20T08:19:12.389Z,88
2016-01-20T08:20:14.174Z,88
2016-01-20T08:21:12.973Z,88
2016-01-20T08:22:12.664Z,88
2016-01-20T08:23:11.917Z,88
2016-01-20T08:24:11.185Z,88
2016-01-20T08:25:10.420Z,88
2016-01-20T08:26:09.687Z,88
2016-01-20T08:27:08.940Z,88
2016-01-20T08:28:08.209Z,88
2016-01-20T08:29:07.493Z,88
2016-01-20T08:30:09.262Z,88
2016-01-20T08:31:08.514Z,88
2016-01-20T08:32:07.768Z,88
2016-01-20T08:33:07.051Z,88
2016-01-20T08:34:06.273Z,88
2016-01-20T08:35:05.542Z,88
2016-01-20T08:36:04.685Z,88
2016-01-20T08:37:03.532Z,87
2016-01-20T08:38:02.268Z,87
2016-01-20T08:39:01.067Z,87
2016-01-20T08:40:02.821Z,87
2016-01-20T08:41:01.573Z,87
2016-01-20T08:42:00.311Z,87
2016-01-20T08:42:59.047Z,87
2016-01-20T08:43:57.784Z,87
2016-01-20T08:44:56.100Z,87
2016-01-20T08:45:55.290Z,87
2016-01-20T08:46:53.995Z,87
2016-01-20T08:47:52.747Z,87
2016-01-20T08:48:51.532Z,87
2016-01-20T08:49:53.300Z,87
2016-01-20T08:50:51.787Z,87
2016-01-20T08:51:50.274Z,87
2016-01-20T08:52:52.715Z,87
2016-01-20T08:53:54.968Z,87
2016-01-20T08:54:57.267Z,87
2016-01-20T08:55:59.598Z,87
2016-01-20T08:57:01.929Z,87
2016-01-20T08:58:04.260Z,87
2016-01-20T08:59:06.652Z,87
2016-01-20T09:00:08.405Z,87
2016-01-20T09:01:10.736Z,87
2016-01-20T09:02:13.082Z,87
2016-01-20T09:03:15.398Z,87
2016-01-20T09:04:17.854Z,87
2016-01-20T09:05:20.060Z,86
2016-01-20T09:06:22.140Z,86
2016-01-20T09:07:24.237Z,86
2016-01-20T09:08:26.052Z,86
2016-01-20T09:09:27.945Z,86
2016-01-20T09:10:29.682Z,86
2016-01-20T09:11:31.435Z,86
2016-01-20T09:12:33.344Z,86
2016-01-20T09:13:35.128Z,86
2016-01-20T09:14:36.709Z,86
2016-01-20T09:15:38.275Z,86
2016-01-20T09:16:39.839Z,86
2016-01-20T09:17:41.485Z,86
2016-01-20T09:18:42.941Z,86
2016-01-20T09:19:44.319Z,86
2016-01-20T09:20:46.087Z,85
2016-01-20T09:21:47.122Z,85
2016-01-20T09:22:48.170Z,85
2016-01-20T09:23:49.220Z,85
2016-01-20T09:24:50.269Z,85
2016-01-20T09:25:51.054Z,85
2016-01-20T09:26:52.056Z,85
2016-01-20T09:27:52.637Z,85
2016-01-20T09:28:53.437Z,84
2016-01-20T09:29:54.018Z,84
2016-01-20T09:30:55.771Z,84
2016-01-20T09:31:56.304Z,84
2016-01-20T09:32:56.587Z,84
2016-01-20T09:33:56.872Z,84
2016-01-20T09:34:57.140Z,84
2016-01-20T09:35:57.423Z,84
2016-01-20T09:36:57.692Z,84
2016-01-20T09:37:57.976Z,84
2016-01-20T09:38:58.245Z,84
2016-01-20T09:39:58.592Z,84
2016-01-20T09:41:00.345Z,84
2016-01-20T09:42:00.628Z,84
2016-01-20T09:43:00.630Z,83
2016-01-20T09:44:00.415Z,83
2016-01-20T09:45:00.167Z,83
2016-01-20T09:45:59.935Z,83
2016-01-20T09:46:59.703Z,83
2016-01-20T09:47:59.456Z,83
2016-01-20T09:48:59.241Z,83
2016-01-20T09:49:59.045Z,83
2016-01-20T09:51:00.814Z,83
2016-01-20T09:52:00.316Z,83
2016-01-20T09:52:59.835Z,83
2016-01-20T09:53:59.087Z,83
2016-01-20T09:54:58.340Z,83
2016-01-20T09:55:57.842Z,83
2016-01-20T09:56:57.360Z,83
2016-01-20T09:57:56.613Z,83
2016-01-20T09:58:55.866Z,82
2016-01-20T09:59:54.915Z,82
2016-01-20T10:00:56.684Z,83
2016-01-20T10:01:55.921Z,83
2016-01-20T10:02:55.174Z,83
2016-01-20T10:03:54.426Z,83
2016-01-20T10:04:53.678Z,83
2016-01-20T10:05:52.994Z,83
2016-01-20T10:06:52.450Z,83
2016-01-20T10:07:51.953Z,83
2016-01-20T10:08:51.455Z,83
2016-01-20T10:09:50.755Z,83
2016-01-20T10:10:52.523Z,83
2016-01-20T10:11:51.761Z,83
2016-01-20T10:12:51.029Z,83
2016-01-20T10:13:50.281Z,83
2016-01-20T10:14:49.533Z,83
2016-01-20T10:15:48.786Z,83
2016-01-20T10:16:48.039Z,83
2016-01-20T10:17:47.277Z,83
2016-01-20T10:18:46.530Z,83
2016-01-20T10:19:45.844Z,83
2016-01-20T10:20:47.597Z,83
2016-01-20T10:21:46.850Z,82
2016-01-20T10:22:45.853Z,82
2016-01-20T10:23:44.574Z,82
2016-01-20T10:24:43.311Z,82
2016-01-20T10:25:42.061Z,82
2016-01-20T10:26:40.798Z,82
2016-01-20T10:27:39.582Z,82
2016-01-20T10:28:38.272Z,82
2016-01-20T10:29:36.635Z,82
2016-01-20T10:30:38.825Z,82
2016-01-20T10:31:37.562Z,82
2016-01-20T10:32:36.314Z,82
2016-01-20T10:33:35.052Z,82
2016-01-20T10:34:33.773Z,82
2016-01-20T10:35:32.509Z,82
2016-01-20T10:36:31.246Z,82
2016-01-20T10:37:29.984Z,82
2016-01-20T10:38:28.721Z,82
2016-01-20T10:39:27.520Z,82
2016-01-20T10:40:29.273Z,82
2016-01-20T10:41:28.041Z,82
2016-01-20T10:42:26.794Z,82
2016-01-20T10:43:25.265Z,82
2016-01-20T10:44:23.971Z,82
2016-01-20T10:45:22.708Z,82
2016-01-20T10:46:21.462Z,82
2016-01-20T10:47:20.183Z,82
2016-01-20T10:48:18.670Z,81
2016-01-20T10:49:21.048Z,81
2016-01-20T10:50:22.816Z,81
2016-01-20T10:51:24.897Z,80
2016-01-20T10:52:26.430Z,80
2016-01-20T10:53:27.996Z,80
2016-01-20T10:54:29.295Z,80
2016-01-20T10:55:30.611Z,80
2016-01-20T10:56:31.644Z,80
2016-01-20T10:57:32.834Z,80
2016-01-20T10:58:33.774Z,79
2016-01-20T10:59:34.590Z,79
2016-01-20T11:00:35.920Z,79
2016-01-20T11:01:37.142Z,79
2016-01-20T11:02:37.927Z,80
2016-01-20T11:03:38.976Z,80
2016-01-20T11:04:40.026Z,79
2016-01-20T11:05:40.840Z,79
2016-01-20T11:06:41.593Z,79
2016-01-20T11:07:42.393Z,79
2016-01-20T11:08:43.224Z,79
2016-01-20T11:09:44.054Z,79
2016-01-20T11:10:45.776Z,79
2016-01-20T11:11:46.310Z,79
2016-01-20T11:12:46.843Z,79
2016-01-20T11:13:47.378Z,79
2016-01-20T11:14:48.162Z,79
2016-01-20T11:15:48.961Z,79
2016-01-20T11:16:49.730Z,79
2016-01-20T11:17:50.545Z,79
2016-01-20T11:18:51.313Z,79
2016-01-20T11:19:52.175Z,79
2016-01-20T11:20:53.475Z,79
2016-01-20T11:21:54.464Z,79
2016-01-20T11:22:54.983Z,79
2016-01-20T11:23:55.783Z,79
2016-01-20T11:24:56.583Z,79
2016-01-20T11:25:57.475Z,79
2016-01-20T11:26:58.150Z,79
2016-01-20T11:27:58.497Z,80
2016-01-20T11:28:59.969Z,80
2016-01-20T11:30:01.080Z,79
2016-01-20T11:31:02.849Z,79
2016-01-20T11:32:03.366Z,79
2016-01-20T11:33:04.182Z,79
2016-01-20T11:34:04.950Z,79
2016-01-20T11:35:05.735Z,79
2016-01-20T11:36:06.518Z,80
2016-01-20T11:37:07.551Z,80
2016-01-20T11:38:08.618Z,80
2016-01-20T11:39:09.651Z,80
2016-01-20T11:40:10.763Z,80
2016-01-20T11:41:12.516Z,80
2016-01-20T11:42:13.550Z,79
2016-01-20T11:43:14.600Z,80
2016-01-20T11:44:15.649Z,79
2016-01-20T11:45:16.433Z,79
2016-01-20T11:46:17.218Z,80
2016-01-20T11:47:18.268Z,79
2016-01-20T11:48:19.316Z,80
2016-01-20T11:49:20.382Z,80
2016-01-20T11:50:21.479Z,79
2016-01-20T11:51:23.232Z,79
2016-01-20T11:52:24.015Z,79
2016-01-20T11:53:24.799Z,79
2016-01-20T11:54:25.708Z,79
2016-01-20T11:55:26.382Z,79
2016-01-20T11:56:26.917Z,79
2016-01-20T11:57:27.435Z,79
2016-01-20T11:58:28.234Z,79
2016-01-20T11:59:29.018Z,79
2016-01-20T12:00:29.631Z,79
2016-01-20T12:01:31.367Z,79
2016-01-20T12:02:31.839Z,78
2016-01-20T12:03:32.170Z,78
2016-01-20T12:04:32.454Z,78
2016-01-20T12:05:32.738Z,78
2016-01-20T12:06:33.023Z,78
2016-01-20T12:07:33.306Z,78
2016-01-20T12:08:33.120Z,78
2016-01-20T12:09:33.827Z,78
2016-01-20T12:10:34.158Z,78
2016-01-20T12:11:35.911Z,78
2016-01-20T12:12:36.211Z,79
2016-01-20T12:13:36.728Z,79
2016-01-20T12:14:37.262Z,79
2016-01-20T12:15:37.359Z,79
2016-01-20T12:16:38.580Z,79
2016-01-20T12:17:39.114Z,78
2016-01-20T12:18:39.398Z,78
2016-01-20T12:19:39.666Z,78
2016-01-20T12:20:39.997Z,79
2016-01-20T12:21:41.766Z,79
2016-01-20T12:22:42.284Z,78
2016-01-20T12:23:42.569Z,78
2016-01-20T12:24:42.836Z,78
2016-01-20T12:25:43.135Z,78
2016-01-20T12:26:43.388Z,78
2016-01-20T12:27:43.688Z,78
2016-01-20T12:28:43.504Z,78
2016-01-20T12:29:44.210Z,79
2016-01-20T12:30:44.368Z,79
2016-01-20T12:31:46.558Z,79
2016-01-20T12:32:47.092Z,79
2016-01-20T12:33:47.188Z,79
2016-01-20T12:34:48.160Z,79
2016-01-20T12:35:48.694Z,79
2016-01-20T12:36:49.212Z,79
2016-01-20T12:37:49.996Z,79
2016-01-20T12:38:50.546Z,78
2016-01-20T12:39:50.830Z,78
2016-01-20T12:40:51.146Z,78
2016-01-20T12:41:52.915Z,78
2016-01-20T12:42:52.917Z,78
2016-01-20T12:43:53.200Z,78
2016-01-20T12:44:53.219Z,78
2016-01-20T12:45:53.237Z,78
2016-01-20T12:46:53.006Z,78
2016-01-20T12:47:52.320Z,78
2016-01-20T12:48:52.526Z,78
2016-01-20T12:49:52.295Z,78
2016-01-20T12:50:52.110Z,78
2016-01-20T12:51:53.862Z,78
2016-01-20T12:52:53.630Z,78
2016-01-20T12:53:53.383Z,78
2016-01-20T12:54:53.167Z,78
2016-01-20T12:55:52.904Z,78
2016-01-20T12:56:52.922Z,78
2016-01-20T12:57:52.957Z,78
2016-01-20T12:58:52.975Z,78
2016-01-20T12:59:52.994Z,78
2016-01-20T13:00:53.324Z,78
2016-01-20T13:01:55.077Z,78
2016-01-20T13:02:55.095Z,78
2016-01-20T13:03:55.426Z,78
2016-01-20T13:04:55.647Z,78
2016-01-20T13:05:55.916Z,78
2016-01-20T13:06:56.184Z,78
2016-01-20T13:07:56.484Z,78
2016-01-20T13:08:56.737Z,78
2016-01-20T13:09:57.021Z,79
2016-01-20T13:10:57.601Z,78
2016-01-20T13:11:59.354Z,79
2016-01-20T13:12:59.903Z,79
2016-01-20T13:14:00.687Z,79
2016-01-20T13:15:01.487Z,79
2016-01-20T13:16:02.255Z,79
2016-01-20T13:17:03.055Z,79
2016-01-20T13:18:03.589Z,79
2016-01-20T13:19:04.373Z,79
2016-01-20T13:20:05.203Z,79
2016-01-20T13:21:05.987Z,79
2016-01-20T13:22:07.756Z,79
2016-01-20T13:23:08.539Z,79
2016-01-20T13:24:09.589Z,79
2016-01-20T13:25:10.655Z,79
2016-01-20T13:26:11.423Z,79
2016-01-20T13:27:12.191Z,79
2016-01-20T13:28:13.256Z,79
2016-01-20T13:29:14.024Z,79
2016-01-20T13:30:15.074Z,79
2016-01-20T13:31:16.186Z,80
2016-01-20T13:32:17.939Z,80
2016-01-20T13:33:19.254Z,80
2016-01-20T13:34:20.554Z,80
2016-01-20T13:35:21.837Z,80
2016-01-20T13:36:23.153Z,80
2016-01-20T13:37:24.452Z,80
2016-01-20T13:38:25.736Z,80
2016-01-20T13:39:27.129Z,80
2016-01-20T13:40:28.382Z,79
2016-01-20T13:41:29.182Z,79
2016-01-20T13:42:30.951Z,79
2016-01-20T13:43:31.985Z,79
2016-01-20T13:44:33.034Z,79
2016-01-20T13:45:34.067Z,79
2016-01-20T13:46:35.133Z,80
2016-01-20T13:47:36.417Z,80
2016-01-20T13:48:37.732Z,80
2016-01-20T13:49:39.032Z,79
2016-01-20T13:50:40.065Z,79
2016-01-20T13:51:41.162Z,79
2016-01-20T13:52:42.930Z,79
2016-01-20T13:53:43.965Z,79
2016-01-20T13:54:45.013Z,80
2016-01-20T13:55:46.391Z,79
2016-01-20T13:56:47.378Z,80
2016-01-20T13:57:48.662Z,79
2016-01-20T13:58:49.696Z,79
2016-01-20T13:59:50.761Z,79
2016-01-20T14:00:51.780Z,79
2016-01-20T14:01:52.894Z,79
2016-01-20T14:02:54.663Z,79
2016-01-20T14:03:55.701Z,80
2016-01-20T14:04:56.984Z,79
2016-01-20T14:05:58.050Z,80
2016-01-20T14:06:59.350Z,79
2016-01-20T14:08:00.399Z,80
2016-01-20T14:09:01.698Z,80
2016-01-20T14:10:02.998Z,80
2016-01-20T14:11:04.298Z,80
2016-01-20T14:12:05.659Z,80
2016-01-20T14:13:07.412Z,80
2016-01-20T14:14:08.697Z,80
2016-01-20T14:15:10.011Z,80
2016-01-20T14:16:11.311Z,80
2016-01-20T14:17:12.595Z,79
2016-01-20T14:18:13.645Z,79
2016-01-20T14:19:14.725Z,80
2016-01-20T14:20:15.994Z,79
2016-01-20T14:21:17.044Z,80